sensor_id;sensor_type;location;lat;lon;timestamp;P1;durP1;ratioP1;P2;durP2;ratioP2
63016;SDS011;50274;45.640;11.756;2023-12-22T00:01:13;40.20;;;23.42;;
63016;SDS011;50274;45.640;11.756;2023-12-22T00:03:42;43.83;;;25.52;;
63016;SDS011;50274;45.640;11.756;2023-12-22T00:06:11;47.28;;;26.13;;
63016;SDS011;50274;45.640;11.756;2023-12-22T00:08:37;39.75;;;23.05;;
63016;SDS011;50274;45.640;11.756;2023-12-22T00:11:03;45.63;;;25.17;;
63016;SDS011;50274;45.640;11.756;2023-12-22T00:13:29;43.30;;;23.63;;
63016;SDS011;50274;45.640;11.756;2023-12-22T00:15:55;41.50;;;23.00;;
63016;SDS011;50274;45.640;11.756;2023-12-22T00:18:21;42.50;;;23.57;;
63016;SDS011;50274;45.640;11.756;2023-12-22T00:20:47;45.47;;;23.75;;
63016;SDS011;50274;45.640;11.756;2023-12-22T00:23:12;43.63;;;23.83;;
63016;SDS011;50274;45.640;11.756;2023-12-22T00:25:38;42.53;;;23.95;;
63016;SDS011;50274;45.640;11.756;2023-12-22T00:28:04;41.75;;;22.75;;
63016;SDS011;50274;45.640;11.756;2023-12-22T00:30:30;45.33;;;24.60;;
63016;SDS011;50274;45.640;11.756;2023-12-22T00:32:56;43.00;;;22.92;;
63016;SDS011;50274;45.640;11.756;2023-12-22T00:35:21;40.70;;;22.70;;
63016;SDS011;50274;45.640;11.756;2023-12-22T00:37:47;33.85;;;19.90;;
63016;SDS011;50274;45.640;11.756;2023-12-22T00:40:13;40.70;;;22.70;;
63016;SDS011;50274;45.640;11.756;2023-12-22T00:42:39;38.67;;;21.20;;
63016;SDS011;50274;45.640;11.756;2023-12-22T00:45:05;40.85;;;23.27;;
63016;SDS011;50274;45.640;11.756;2023-12-22T00:47:31;42.72;;;24.20;;
63016;SDS011;50274;45.640;11.756;2023-12-22T00:50:00;40.58;;;22.85;;
63016;SDS011;50274;45.640;11.756;2023-12-22T00:52:25;39.58;;;22.25;;
63016;SDS011;50274;45.640;11.756;2023-12-22T00:54:51;39.40;;;22.80;;
63016;SDS011;50274;45.640;11.756;2023-12-22T00:57:17;39.47;;;23.17;;
63016;SDS011;50274;45.640;11.756;2023-12-22T00:59:43;39.70;;;23.52;;
63016;SDS011;50274;45.640;11.756;2023-12-22T01:02:13;42.90;;;24.42;;
63016;SDS011;50274;45.640;11.756;2023-12-22T01:04:39;37.85;;;23.05;;
63016;SDS011;50274;45.640;11.756;2023-12-22T01:07:07;39.33;;;22.23;;
63016;SDS011;50274;45.640;11.756;2023-12-22T01:09:33;35.55;;;21.73;;
63016;SDS011;50274;45.640;11.756;2023-12-22T01:12:00;39.92;;;22.92;;
63016;SDS011;50274;45.640;11.756;2023-12-22T01:14:29;41.53;;;22.98;;
63016;SDS011;50274;45.640;11.756;2023-12-22T01:16:55;36.05;;;21.15;;
63016;SDS011;50274;45.640;11.756;2023-12-22T01:19:20;40.42;;;21.98;;
63016;SDS011;50274;45.640;11.756;2023-12-22T01:21:46;33.80;;;19.00;;
63016;SDS011;50274;45.640;11.756;2023-12-22T01:24:12;36.73;;;21.27;;
63016;SDS011;50274;45.640;11.756;2023-12-22T01:26:38;37.03;;;20.52;;
63016;SDS011;50274;45.640;11.756;2023-12-22T01:29:04;35.53;;;22.40;;
63016;SDS011;50274;45.640;11.756;2023-12-22T01:31:30;35.87;;;22.07;;
63016;SDS011;50274;45.640;11.756;2023-12-22T01:33:55;38.40;;;22.55;;
63016;SDS011;50274;45.640;11.756;2023-12-22T01:36:21;38.97;;;21.17;;
63016;SDS011;50274;45.640;11.756;2023-12-22T01:38:47;37.80;;;21.30;;
63016;SDS011;50274;45.640;11.756;2023-12-22T01:41:13;42.67;;;23.38;;
63016;SDS011;50274;45.640;11.756;2023-12-22T01:43:39;35.13;;;21.13;;
63016;SDS011;50274;45.640;11.756;2023-12-22T01:46:04;38.15;;;21.10;;
63016;SDS011;50274;45.640;11.756;2023-12-22T01:48:32;37.53;;;20.67;;
63016;SDS011;50274;45.640;11.756;2023-12-22T01:50:59;35.08;;;20.02;;
63016;SDS011;50274;45.640;11.756;2023-12-22T01:53:27;32.95;;;19.27;;
63016;SDS011;50274;45.640;11.756;2023-12-22T01:55:55;37.13;;;22.08;;
63016;SDS011;50274;45.640;11.756;2023-12-22T01:58:22;33.65;;;19.90;;
63016;SDS011;50274;45.640;11.756;2023-12-22T02:00:48;33.90;;;21.50;;
63016;SDS011;50274;45.640;11.756;2023-12-22T02:03:14;35.95;;;22.92;;
63016;SDS011;50274;45.640;11.756;2023-12-22T02:05:42;37.73;;;22.43;;
63016;SDS011;50274;45.640;11.756;2023-12-22T02:08:11;38.75;;;21.55;;
63016;SDS011;50274;45.640;11.756;2023-12-22T02:10:37;37.33;;;21.75;;
63016;SDS011;50274;45.640;11.756;2023-12-22T02:13:04;38.30;;;21.95;;
63016;SDS011;50274;45.640;11.756;2023-12-22T02:15:31;38.83;;;21.63;;
63016;SDS011;50274;45.640;11.756;2023-12-22T02:18:09;35.90;;;20.67;;
63016;SDS011;50274;45.640;11.756;2023-12-22T02:20:38;40.50;;;22.48;;
63016;SDS011;50274;45.640;11.756;2023-12-22T02:23:05;34.00;;;20.38;;
63016;SDS011;50274;45.640;11.756;2023-12-22T02:25:30;37.60;;;22.00;;
63016;SDS011;50274;45.640;11.756;2023-12-22T02:27:57;37.57;;;21.73;;
63016;SDS011;50274;45.640;11.756;2023-12-22T02:30:37;33.22;;;20.77;;
63016;SDS011;50274;45.640;11.756;2023-12-22T02:33:14;37.92;;;22.95;;
63016;SDS011;50274;45.640;11.756;2023-12-22T02:35:41;37.20;;;21.85;;
63016;SDS011;50274;45.640;11.756;2023-12-22T02:38:09;38.58;;;22.02;;
63016;SDS011;50274;45.640;11.756;2023-12-22T02:40:38;37.25;;;22.25;;
63016;SDS011;50274;45.640;11.756;2023-12-22T02:43:05;33.35;;;20.90;;
63016;SDS011;50274;45.640;11.756;2023-12-22T02:45:32;32.83;;;20.40;;
63016;SDS011;50274;45.640;11.756;2023-12-22T02:47:58;33.53;;;20.60;;
63016;SDS011;50274;45.640;11.756;2023-12-22T02:50:23;35.92;;;19.92;;
63016;SDS011;50274;45.640;11.756;2023-12-22T02:52:49;34.95;;;19.20;;
63016;SDS011;50274;45.640;11.756;2023-12-22T02:55:16;38.53;;;18.97;;
63016;SDS011;50274;45.640;11.756;2023-12-22T02:57:42;33.92;;;18.33;;
63016;SDS011;50274;45.640;11.756;2023-12-22T03:00:08;31.10;;;19.13;;
63016;SDS011;50274;45.640;11.756;2023-12-22T03:02:34;30.95;;;19.40;;
63016;SDS011;50274;45.640;11.756;2023-12-22T03:05:00;33.03;;;18.97;;
63016;SDS011;50274;45.640;11.756;2023-12-22T03:07:26;36.75;;;20.35;;
63016;SDS011;50274;45.640;11.756;2023-12-22T03:09:52;39.57;;;21.63;;
63016;SDS011;50274;45.640;11.756;2023-12-22T03:12:17;41.45;;;22.83;;
63016;SDS011;50274;45.640;11.756;2023-12-22T03:14:43;32.75;;;19.42;;
63016;SDS011;50274;45.640;11.756;2023-12-22T03:17:09;33.63;;;18.60;;
63016;SDS011;50274;45.640;11.756;2023-12-22T03:19:36;31.30;;;19.05;;
63016;SDS011;50274;45.640;11.756;2023-12-22T03:22:02;30.92;;;18.08;;
63016;SDS011;50274;45.640;11.756;2023-12-22T03:24:28;30.20;;;17.60;;
63016;SDS011;50274;45.640;11.756;2023-12-22T03:26:54;36.03;;;19.33;;
63016;SDS011;50274;45.640;11.756;2023-12-22T03:29:20;26.48;;;16.83;;
63016;SDS011;50274;45.640;11.756;2023-12-22T03:31:46;30.48;;;18.83;;
63016;SDS011;50274;45.640;11.756;2023-12-22T03:34:12;33.67;;;19.80;;
63016;SDS011;50274;45.640;11.756;2023-12-22T03:36:38;29.30;;;16.97;;
63016;SDS011;50274;45.640;11.756;2023-12-22T03:39:04;31.52;;;18.02;;
63016;SDS011;50274;45.640;11.756;2023-12-22T03:41:30;27.95;;;16.70;;
63016;SDS011;50274;45.640;11.756;2023-12-22T03:43:56;29.98;;;17.23;;
63016;SDS011;50274;45.640;11.756;2023-12-22T03:46:23;29.73;;;17.83;;
63016;SDS011;50274;45.640;11.756;2023-12-22T03:48:52;33.80;;;18.48;;
63016;SDS011;50274;45.640;11.756;2023-12-22T03:51:18;34.60;;;18.05;;
63016;SDS011;50274;45.640;11.756;2023-12-22T03:53:44;30.10;;;18.23;;
63016;SDS011;50274;45.640;11.756;2023-12-22T03:56:16;34.07;;;20.10;;
63016;SDS011;50274;45.640;11.756;2023-12-22T03:58:55;34.75;;;20.42;;
63016;SDS011;50274;45.640;11.756;2023-12-22T04:01:20;33.30;;;18.63;;
63016;SDS011;50274;45.640;11.756;2023-12-22T04:03:46;31.70;;;19.50;;
63016;SDS011;50274;45.640;11.756;2023-12-22T04:06:12;38.25;;;21.70;;
63016;SDS011;50274;45.640;11.756;2023-12-22T04:08:38;31.70;;;18.17;;
63016;SDS011;50274;45.640;11.756;2023-12-22T04:11:04;35.87;;;20.77;;
63016;SDS011;50274;45.640;11.756;2023-12-22T04:13:30;32.33;;;19.17;;
63016;SDS011;50274;45.640;11.756;2023-12-22T04:15:56;31.63;;;18.08;;
63016;SDS011;50274;45.640;11.756;2023-12-22T04:18:22;31.80;;;18.07;;
63016;SDS011;50274;45.640;11.756;2023-12-22T04:20:47;32.13;;;19.30;;
63016;SDS011;50274;45.640;11.756;2023-12-22T04:23:16;36.85;;;20.70;;
63016;SDS011;50274;45.640;11.756;2023-12-22T04:25:42;32.30;;;19.00;;
63016;SDS011;50274;45.640;11.756;2023-12-22T04:28:08;32.33;;;19.80;;
63016;SDS011;50274;45.640;11.756;2023-12-22T04:30:34;36.07;;;19.77;;
63016;SDS011;50274;45.640;11.756;2023-12-22T04:33:00;32.75;;;19.25;;
63016;SDS011;50274;45.640;11.756;2023-12-22T04:35:26;28.88;;;18.00;;
63016;SDS011;50274;45.640;11.756;2023-12-22T04:37:52;29.07;;;17.03;;
63016;SDS011;50274;45.640;11.756;2023-12-22T04:40:18;36.88;;;21.38;;
63016;SDS011;50274;45.640;11.756;2023-12-22T04:42:44;38.97;;;21.17;;
63016;SDS011;50274;45.640;11.756;2023-12-22T04:45:10;35.70;;;19.43;;
63016;SDS011;50274;45.640;11.756;2023-12-22T04:47:36;35.28;;;19.52;;
63016;SDS011;50274;45.640;11.756;2023-12-22T04:50:02;32.92;;;20.40;;
63016;SDS011;50274;45.640;11.756;2023-12-22T04:52:28;32.35;;;19.08;;
63016;SDS011;50274;45.640;11.756;2023-12-22T04:54:54;35.17;;;19.63;;
63016;SDS011;50274;45.640;11.756;2023-12-22T04:57:20;30.90;;;19.02;;
63016;SDS011;50274;45.640;11.756;2023-12-22T04:59:47;32.25;;;18.70;;
63016;SDS011;50274;45.640;11.756;2023-12-22T05:02:13;29.13;;;18.57;;
63016;SDS011;50274;45.640;11.756;2023-12-22T05:04:38;37.47;;;20.50;;
63016;SDS011;50274;45.640;11.756;2023-12-22T05:07:04;31.93;;;18.80;;
63016;SDS011;50274;45.640;11.756;2023-12-22T05:09:34;30.40;;;17.52;;
63016;SDS011;50274;45.640;11.756;2023-12-22T05:12:00;35.38;;;18.05;;
63016;SDS011;50274;45.640;11.756;2023-12-22T05:14:26;26.55;;;16.65;;
63016;SDS011;50274;45.640;11.756;2023-12-22T05:16:52;28.17;;;16.30;;
63016;SDS011;50274;45.640;11.756;2023-12-22T05:19:20;28.27;;;17.00;;
63016;SDS011;50274;45.640;11.756;2023-12-22T05:21:46;25.33;;;16.45;;
63016;SDS011;50274;45.640;11.756;2023-12-22T05:24:14;29.42;;;16.38;;
63016;SDS011;50274;45.640;11.756;2023-12-22T05:26:40;26.57;;;15.63;;
63016;SDS011;50274;45.640;11.756;2023-12-22T05:29:06;26.08;;;15.32;;
63016;SDS011;50274;45.640;11.756;2023-12-22T05:31:33;28.88;;;15.23;;
63016;SDS011;50274;45.640;11.756;2023-12-22T05:33:59;23.77;;;13.95;;
63016;SDS011;50274;45.640;11.756;2023-12-22T05:36:25;26.77;;;14.87;;
63016;SDS011;50274;45.640;11.756;2023-12-22T05:38:51;24.67;;;14.40;;
63016;SDS011;50274;45.640;11.756;2023-12-22T05:41:17;23.02;;;13.35;;
63016;SDS011;50274;45.640;11.756;2023-12-22T05:43:43;27.20;;;15.33;;
63016;SDS011;50274;45.640;11.756;2023-12-22T05:46:08;28.48;;;14.90;;
63016;SDS011;50274;45.640;11.756;2023-12-22T05:48:34;23.50;;;14.20;;
63016;SDS011;50274;45.640;11.756;2023-12-22T05:51:00;29.53;;;16.33;;
63016;SDS011;50274;45.640;11.756;2023-12-22T05:53:32;32.70;;;17.15;;
63016;SDS011;50274;45.640;11.756;2023-12-22T05:55:58;27.35;;;15.02;;
63016;SDS011;50274;45.640;11.756;2023-12-22T05:58:24;30.40;;;16.57;;
63016;SDS011;50274;45.640;11.756;2023-12-22T06:00:50;31.13;;;17.15;;
63016;SDS011;50274;45.640;11.756;2023-12-22T06:03:16;30.88;;;16.98;;
63016;SDS011;50274;45.640;11.756;2023-12-22T06:05:42;32.40;;;17.03;;
63016;SDS011;50274;45.640;11.756;2023-12-22T06:08:08;28.77;;;16.60;;
63016;SDS011;50274;45.640;11.756;2023-12-22T06:10:34;29.27;;;16.77;;
63016;SDS011;50274;45.640;11.756;2023-12-22T06:13:01;29.92;;;18.73;;
63016;SDS011;50274;45.640;11.756;2023-12-22T06:15:29;27.90;;;16.50;;
63016;SDS011;50274;45.640;11.756;2023-12-22T06:17:55;26.92;;;15.23;;
63016;SDS011;50274;45.640;11.756;2023-12-22T06:20:21;27.67;;;17.08;;
63016;SDS011;50274;45.640;11.756;2023-12-22T06:22:46;37.27;;;19.23;;
63016;SDS011;50274;45.640;11.756;2023-12-22T06:25:12;33.95;;;19.20;;
63016;SDS011;50274;45.640;11.756;2023-12-22T06:27:38;32.97;;;18.98;;
63016;SDS011;50274;45.640;11.756;2023-12-22T06:30:04;35.63;;;19.53;;
63016;SDS011;50274;45.640;11.756;2023-12-22T06:32:31;31.05;;;17.55;;
63016;SDS011;50274;45.640;11.756;2023-12-22T06:34:58;31.55;;;18.23;;
63016;SDS011;50274;45.640;11.756;2023-12-22T06:37:25;34.85;;;18.73;;
63016;SDS011;50274;45.640;11.756;2023-12-22T06:39:51;32.67;;;18.88;;
63016;SDS011;50274;45.640;11.756;2023-12-22T06:42:17;31.45;;;18.63;;
63016;SDS011;50274;45.640;11.756;2023-12-22T06:44:43;29.03;;;17.03;;
63016;SDS011;50274;45.640;11.756;2023-12-22T06:47:08;28.70;;;17.25;;
63016;SDS011;50274;45.640;11.756;2023-12-22T06:49:34;28.17;;;16.07;;
63016;SDS011;50274;45.640;11.756;2023-12-22T06:52:00;32.78;;;17.70;;
63016;SDS011;50274;45.640;11.756;2023-12-22T06:54:26;33.90;;;19.60;;
63016;SDS011;50274;45.640;11.756;2023-12-22T06:56:52;32.27;;;19.07;;
63016;SDS011;50274;45.640;11.756;2023-12-22T06:59:18;30.90;;;18.58;;
63016;SDS011;50274;45.640;11.756;2023-12-22T07:01:44;32.30;;;19.50;;
63016;SDS011;50274;45.640;11.756;2023-12-22T07:04:09;31.58;;;19.45;;
63016;SDS011;50274;45.640;11.756;2023-12-22T07:06:35;28.77;;;17.48;;
63016;SDS011;50274;45.640;11.756;2023-12-22T07:11:46;36.95;;;19.88;;
63016;SDS011;50274;45.640;11.756;2023-12-22T07:14:15;31.30;;;19.70;;
63016;SDS011;50274;45.640;11.756;2023-12-22T07:16:41;37.03;;;22.23;;
63016;SDS011;50274;45.640;11.756;2023-12-22T07:19:09;37.07;;;20.50;;
63016;SDS011;50274;45.640;11.756;2023-12-22T07:21:38;36.17;;;21.17;;
63016;SDS011;50274;45.640;11.756;2023-12-22T07:24:04;39.92;;;21.85;;
63016;SDS011;50274;45.640;11.756;2023-12-22T07:26:31;35.00;;;21.58;;
63016;SDS011;50274;45.640;11.756;2023-12-22T07:28:56;39.23;;;23.07;;
63016;SDS011;50274;45.640;11.756;2023-12-22T07:31:23;35.97;;;21.75;;
63016;SDS011;50274;45.640;11.756;2023-12-22T07:33:49;41.20;;;23.73;;
63016;SDS011;50274;45.640;11.756;2023-12-22T07:36:15;34.85;;;22.00;;
63016;SDS011;50274;45.640;11.756;2023-12-22T07:38:41;36.87;;;21.63;;
63016;SDS011;50274;45.640;11.756;2023-12-22T07:41:07;39.10;;;21.42;;
63016;SDS011;50274;45.640;11.756;2023-12-22T07:43:33;36.95;;;21.52;;
63016;SDS011;50274;45.640;11.756;2023-12-22T07:45:59;34.50;;;19.33;;
63016;SDS011;50274;45.640;11.756;2023-12-22T07:48:24;37.10;;;20.23;;
63016;SDS011;50274;45.640;11.756;2023-12-22T07:50:50;34.95;;;20.88;;
63016;SDS011;50274;45.640;11.756;2023-12-22T07:53:16;35.20;;;20.45;;
63016;SDS011;50274;45.640;11.756;2023-12-22T07:55:45;38.22;;;22.73;;
63016;SDS011;50274;45.640;11.756;2023-12-22T07:58:12;37.88;;;22.25;;
63016;SDS011;50274;45.640;11.756;2023-12-22T08:00:38;45.55;;;24.70;;
63016;SDS011;50274;45.640;11.756;2023-12-22T08:03:05;37.00;;;22.58;;
63016;SDS011;50274;45.640;11.756;2023-12-22T08:05:34;41.83;;;24.88;;
63016;SDS011;50274;45.640;11.756;2023-12-22T08:08:06;42.03;;;25.10;;
63016;SDS011;50274;45.640;11.756;2023-12-22T08:10:32;40.20;;;22.10;;
63016;SDS011;50274;45.640;11.756;2023-12-22T08:12:58;42.13;;;24.00;;
63016;SDS011;50274;45.640;11.756;2023-12-22T08:15:24;39.92;;;22.92;;
63016;SDS011;50274;45.640;11.756;2023-12-22T08:17:50;41.45;;;23.00;;
63016;SDS011;50274;45.640;11.756;2023-12-22T08:20:17;39.73;;;24.17;;
63016;SDS011;50274;45.640;11.756;2023-12-22T08:22:45;39.28;;;23.35;;
63016;SDS011;50274;45.640;11.756;2023-12-22T08:25:11;40.85;;;25.23;;
63016;SDS011;50274;45.640;11.756;2023-12-22T08:27:38;37.08;;;22.83;;
63016;SDS011;50274;45.640;11.756;2023-12-22T08:30:04;44.47;;;25.07;;
63016;SDS011;50274;45.640;11.756;2023-12-22T08:32:34;38.03;;;23.70;;
63016;SDS011;50274;45.640;11.756;2023-12-22T08:35:00;37.53;;;21.92;;
63016;SDS011;50274;45.640;11.756;2023-12-22T08:37:26;38.58;;;23.13;;
63016;SDS011;50274;45.640;11.756;2023-12-22T08:39:51;37.87;;;22.33;;
63016;SDS011;50274;45.640;11.756;2023-12-22T08:42:17;37.65;;;22.98;;
63016;SDS011;50274;45.640;11.756;2023-12-22T08:44:43;38.55;;;21.33;;
63016;SDS011;50274;45.640;11.756;2023-12-22T08:47:10;41.28;;;22.88;;
63016;SDS011;50274;45.640;11.756;2023-12-22T08:49:35;39.45;;;22.15;;
63016;SDS011;50274;45.640;11.756;2023-12-22T08:52:01;54.83;;;24.98;;
63016;SDS011;50274;45.640;11.756;2023-12-22T08:54:29;35.95;;;22.10;;
63016;SDS011;50274;45.640;11.756;2023-12-22T08:56:55;38.45;;;22.38;;
63016;SDS011;50274;45.640;11.756;2023-12-22T08:59:32;38.67;;;22.57;;
63016;SDS011;50274;45.640;11.756;2023-12-22T09:01:58;33.75;;;21.50;;
63016;SDS011;50274;45.640;11.756;2023-12-22T09:04:24;38.53;;;22.07;;
63016;SDS011;50274;45.640;11.756;2023-12-22T09:06:50;37.65;;;23.00;;
63016;SDS011;50274;45.640;11.756;2023-12-22T09:09:16;39.70;;;23.67;;
63016;SDS011;50274;45.640;11.756;2023-12-22T09:11:42;38.08;;;22.92;;
63016;SDS011;50274;45.640;11.756;2023-12-22T09:14:09;37.43;;;23.20;;
63016;SDS011;50274;45.640;11.756;2023-12-22T09:16:36;36.97;;;21.20;;
63016;SDS011;50274;45.640;11.756;2023-12-22T09:19:02;41.08;;;21.92;;
63016;SDS011;50274;45.640;11.756;2023-12-22T09:21:28;36.83;;;21.38;;
63016;SDS011;50274;45.640;11.756;2023-12-22T09:23:54;32.37;;;20.37;;
63016;SDS011;50274;45.640;11.756;2023-12-22T09:26:20;33.47;;;20.02;;
63016;SDS011;50274;45.640;11.756;2023-12-22T09:28:46;37.40;;;20.75;;
63016;SDS011;50274;45.640;11.756;2023-12-22T09:31:12;33.10;;;20.50;;
63016;SDS011;50274;45.640;11.756;2023-12-22T09:33:38;31.33;;;19.15;;
63016;SDS011;50274;45.640;11.756;2023-12-22T09:36:05;33.25;;;19.55;;
63016;SDS011;50274;45.640;11.756;2023-12-22T09:38:31;33.47;;;20.45;;
63016;SDS011;50274;45.640;11.756;2023-12-22T09:40:57;32.27;;;19.60;;
63016;SDS011;50274;45.640;11.756;2023-12-22T09:43:23;32.70;;;20.25;;
63016;SDS011;50274;45.640;11.756;2023-12-22T09:45:49;32.55;;;19.90;;
63016;SDS011;50274;45.640;11.756;2023-12-22T09:48:20;31.45;;;18.95;;
63016;SDS011;50274;45.640;11.756;2023-12-22T09:50:52;29.47;;;17.97;;
63016;SDS011;50274;45.640;11.756;2023-12-22T09:53:19;29.92;;;18.63;;
63016;SDS011;50274;45.640;11.756;2023-12-22T09:55:46;30.98;;;19.70;;
63016;SDS011;50274;45.640;11.756;2023-12-22T09:58:14;30.30;;;18.15;;
63016;SDS011;50274;45.640;11.756;2023-12-22T10:00:43;33.63;;;20.50;;
63016;SDS011;50274;45.640;11.756;2023-12-22T10:03:10;35.83;;;20.77;;
63016;SDS011;50274;45.640;11.756;2023-12-22T10:05:37;33.05;;;19.25;;
63016;SDS011;50274;45.640;11.756;2023-12-22T10:08:06;30.38;;;19.17;;
63016;SDS011;50274;45.640;11.756;2023-12-22T10:10:35;30.40;;;18.95;;
63016;SDS011;50274;45.640;11.756;2023-12-22T10:13:03;28.77;;;18.80;;
63016;SDS011;50274;45.640;11.756;2023-12-22T10:15:34;24.97;;;16.57;;
63016;SDS011;50274;45.640;11.756;2023-12-22T10:18:10;24.42;;;16.65;;
63016;SDS011;50274;45.640;11.756;2023-12-22T10:20:36;24.33;;;15.40;;
63016;SDS011;50274;45.640;11.756;2023-12-22T10:23:02;23.60;;;15.82;;
63016;SDS011;50274;45.640;11.756;2023-12-22T10:25:28;25.47;;;16.07;;
63016;SDS011;50274;45.640;11.756;2023-12-22T10:27:55;24.70;;;14.98;;
63016;SDS011;50274;45.640;11.756;2023-12-22T10:30:21;24.08;;;14.85;;
63016;SDS011;50274;45.640;11.756;2023-12-22T10:32:50;25.48;;;16.08;;
63016;SDS011;50274;45.640;11.756;2023-12-22T10:35:22;26.65;;;16.30;;
63016;SDS011;50274;45.640;11.756;2023-12-22T10:37:48;26.17;;;16.17;;
63016;SDS011;50274;45.640;11.756;2023-12-22T10:40:18;25.95;;;16.65;;
63016;SDS011;50274;45.640;11.756;2023-12-22T10:42:44;25.63;;;17.25;;
63016;SDS011;50274;45.640;11.756;2023-12-22T10:45:11;25.35;;;15.73;;
63016;SDS011;50274;45.640;11.756;2023-12-22T10:47:38;26.07;;;16.57;;
63016;SDS011;50274;45.640;11.756;2023-12-22T10:50:07;28.58;;;17.55;;
63016;SDS011;50274;45.640;11.756;2023-12-22T10:52:33;26.58;;;16.92;;
63016;SDS011;50274;45.640;11.756;2023-12-22T10:54:59;27.95;;;16.92;;
63016;SDS011;50274;45.640;11.756;2023-12-22T10:57:28;30.25;;;18.77;;
63016;SDS011;50274;45.640;11.756;2023-12-22T10:59:55;29.13;;;17.70;;
63016;SDS011;50274;45.640;11.756;2023-12-22T11:02:22;29.90;;;19.23;;
63016;SDS011;50274;45.640;11.756;2023-12-22T11:07:25;31.33;;;19.23;;
63016;SDS011;50274;45.640;11.756;2023-12-22T11:09:53;31.55;;;19.42;;
63016;SDS011;50274;45.640;11.756;2023-12-22T11:12:23;29.47;;;19.30;;
63016;SDS011;50274;45.640;11.756;2023-12-22T11:14:51;28.65;;;18.83;;
63016;SDS011;50274;45.640;11.756;2023-12-22T11:17:20;28.95;;;19.23;;
63016;SDS011;50274;45.640;11.756;2023-12-22T11:19:50;26.73;;;17.30;;
63016;SDS011;50274;45.640;11.756;2023-12-22T11:22:19;26.83;;;17.60;;
63016;SDS011;50274;45.640;11.756;2023-12-22T11:24:47;28.97;;;18.93;;
63016;SDS011;50274;45.640;11.756;2023-12-22T11:27:17;23.67;;;16.02;;
63016;SDS011;50274;45.640;11.756;2023-12-22T11:29:47;27.33;;;17.15;;
63016;SDS011;50274;45.640;11.756;2023-12-22T11:32:15;25.60;;;16.52;;
63016;SDS011;50274;45.640;11.756;2023-12-22T11:34:45;24.60;;;16.25;;
63016;SDS011;50274;45.640;11.756;2023-12-22T11:37:12;25.93;;;16.17;;
63016;SDS011;50274;45.640;11.756;2023-12-22T11:39:39;25.38;;;16.88;;
63016;SDS011;50274;45.640;11.756;2023-12-22T11:42:10;28.55;;;19.55;;
63016;SDS011;50274;45.640;11.756;2023-12-22T11:44:39;27.00;;;17.67;;
63016;SDS011;50274;45.640;11.756;2023-12-22T11:47:06;24.20;;;16.75;;
63016;SDS011;50274;45.640;11.756;2023-12-22T11:49:33;24.47;;;15.93;;
63016;SDS011;50274;45.640;11.756;2023-12-22T11:52:15;22.55;;;15.43;;
63016;SDS011;50274;45.640;11.756;2023-12-22T11:59:58;20.67;;;14.27;;
63016;SDS011;50274;45.640;11.756;2023-12-22T12:02:26;21.60;;;14.27;;
63016;SDS011;50274;45.640;11.756;2023-12-22T12:04:54;22.25;;;15.07;;
63016;SDS011;50274;45.640;11.756;2023-12-22T12:10:53;27.73;;;18.35;;
63016;SDS011;50274;45.640;11.756;2023-12-22T12:13:11;27.85;;;17.58;;
63016;SDS011;50274;45.640;11.756;2023-12-22T12:15:41;25.40;;;17.13;;
63016;SDS011;50274;45.640;11.756;2023-12-22T12:18:07;24.10;;;16.92;;
63016;SDS011;50274;45.640;11.756;2023-12-22T12:20:34;26.27;;;17.70;;
63016;SDS011;50274;45.640;11.756;2023-12-22T12:23:03;23.88;;;17.40;;
63016;SDS011;50274;45.640;11.756;2023-12-22T12:25:30;27.45;;;19.42;;
63016;SDS011;50274;45.640;11.756;2023-12-22T12:28:01;26.80;;;17.97;;
63016;SDS011;50274;45.640;11.756;2023-12-22T12:30:27;24.55;;;16.85;;
63016;SDS011;50274;45.640;11.756;2023-12-22T12:32:53;24.45;;;17.95;;
63016;SDS011;50274;45.640;11.756;2023-12-22T12:35:21;25.73;;;18.83;;
63016;SDS011;50274;45.640;11.756;2023-12-22T12:37:49;29.60;;;19.35;;
63016;SDS011;50274;45.640;11.756;2023-12-22T12:40:17;30.90;;;20.30;;
63016;SDS011;50274;45.640;11.756;2023-12-22T12:42:46;27.02;;;19.40;;
63016;SDS011;50274;45.640;11.756;2023-12-22T12:45:12;27.00;;;19.88;;
63016;SDS011;50274;45.640;11.756;2023-12-22T12:47:37;27.65;;;20.85;;
63016;SDS011;50274;45.640;11.756;2023-12-22T12:50:03;27.30;;;17.90;;
63016;SDS011;50274;45.640;11.756;2023-12-22T12:52:29;27.85;;;19.13;;
63016;SDS011;50274;45.640;11.756;2023-12-22T12:54:55;31.85;;;18.95;;
63016;SDS011;50274;45.640;11.756;2023-12-22T12:57:23;25.97;;;18.73;;
63016;SDS011;50274;45.640;11.756;2023-12-22T12:59:49;26.02;;;19.05;;
63016;SDS011;50274;45.640;11.756;2023-12-22T13:02:19;24.98;;;18.52;;
63016;SDS011;50274;45.640;11.756;2023-12-22T13:04:46;26.42;;;18.08;;
63016;SDS011;50274;45.640;11.756;2023-12-22T13:07:12;26.73;;;18.43;;
63016;SDS011;50274;45.640;11.756;2023-12-22T13:09:38;25.60;;;18.40;;
63016;SDS011;50274;45.640;11.756;2023-12-22T13:12:04;29.50;;;20.15;;
63016;SDS011;50274;45.640;11.756;2023-12-22T13:14:30;28.92;;;20.17;;
63016;SDS011;50274;45.640;11.756;2023-12-22T13:16:57;28.97;;;20.17;;
63016;SDS011;50274;45.640;11.756;2023-12-22T13:19:23;25.50;;;17.48;;
63016;SDS011;50274;45.640;11.756;2023-12-22T13:21:50;25.88;;;18.83;;
63016;SDS011;50274;45.640;11.756;2023-12-22T13:24:17;24.42;;;18.30;;
63016;SDS011;50274;45.640;11.756;2023-12-22T13:26:43;27.30;;;17.30;;
63016;SDS011;50274;45.640;11.756;2023-12-22T13:29:10;29.47;;;19.37;;
63016;SDS011;50274;45.640;11.756;2023-12-22T13:31:37;28.73;;;18.52;;
63016;SDS011;50274;45.640;11.756;2023-12-22T13:34:22;25.48;;;17.58;;
63016;SDS011;50274;45.640;11.756;2023-12-22T13:36:48;27.25;;;18.88;;
63016;SDS011;50274;45.640;11.756;2023-12-22T13:39:14;26.73;;;18.27;;
63016;SDS011;50274;45.640;11.756;2023-12-22T13:41:41;27.77;;;18.73;;
63016;SDS011;50274;45.640;11.756;2023-12-22T13:44:13;29.23;;;19.92;;
63016;SDS011;50274;45.640;11.756;2023-12-22T13:46:39;31.13;;;19.63;;
63016;SDS011;50274;45.640;11.756;2023-12-22T13:49:08;28.02;;;18.85;;
63016;SDS011;50274;45.640;11.756;2023-12-22T13:51:44;25.25;;;16.83;;
63016;SDS011;50274;45.640;11.756;2023-12-22T13:54:13;34.10;;;22.23;;
63016;SDS011;50274;45.640;11.756;2023-12-22T13:56:39;37.80;;;23.55;;
63016;SDS011;50274;45.640;11.756;2023-12-22T13:59:09;32.58;;;22.05;;
63016;SDS011;50274;45.640;11.756;2023-12-22T14:01:35;30.45;;;20.95;;
63016;SDS011;50274;45.640;11.756;2023-12-22T14:04:02;29.63;;;20.10;;
63016;SDS011;50274;45.640;11.756;2023-12-22T14:06:28;29.63;;;18.40;;
63016;SDS011;50274;45.640;11.756;2023-12-22T14:08:54;25.25;;;17.77;;
63016;SDS011;50274;45.640;11.756;2023-12-22T14:11:21;31.73;;;19.17;;
63016;SDS011;50274;45.640;11.756;2023-12-22T14:13:47;25.60;;;18.42;;
63016;SDS011;50274;45.640;11.756;2023-12-22T14:16:14;25.70;;;17.52;;
63016;SDS011;50274;45.640;11.756;2023-12-22T14:18:41;25.63;;;17.07;;
63016;SDS011;50274;45.640;11.756;2023-12-22T14:21:07;25.23;;;17.40;;